Terminal Aerodrome Forecast
Issued by NWS Indianapolis, IN

Home | Current Version | Previous Version | Text Only | Print | Product List | Glossary On
Versions: 1 2 3 4 5 6 7 8 9 10 11 12 13 14 15 16 17 18 19 20 21 22 23 24
000
FTUS43 KIND 280520
TAFIND
TAF
KIND 280520Z 2806/2912 22005KT P6SM BKN080 BKN100
     FM281200 VRB03KT P6SM VCSH BKN110
     FM281500 29006KT P6SM BKN060 PROB30 2815/2821 4SM -SHRA OVC025
     FM282100 32007KT P6SM BKN050 PROB30 2821/2824 4SM -SHRA OVC025
     FM290600 32004KT P6SM BKN010=

USA.gov is the U.S. government's official web portal to all federal, state and local government web resources and services.